Tiempo atmosférico en la estación meteorológica de San José del Valle, Cádiz (105 m.)



Fecha
DESCASC
Temp. máxima en grados centígrados (hora)
DESCASC
Temp. mínima en grados centígrados (hora)
DESCASC
Temp. media en grados centígrados
DESCASC
Racha de viento máxima en m/sg (hora)
DESCASC
Velocidad máxima media en intervalos de 10 minutos(hora)
DESCASC
Precipitaciones diarias en mm
DESCASC
Precipitaciones de 00:00 a 06:00 en mm
DESCASC
Precipitaciones de 06:00 a 12:00 en mm
DESCASC
Precipitaciones de 12:00 a 18:00 en mm
DESCASC
Precipitaciones de 18:00 a 24:00 en mm
DESCASC
22-01-2020 11.5 (15:50) 7.8 (06:10) 9.7 8.61 (21:30) 5 (21:20) 13.8 6.2 1.6 5.4 0.6
21-01-2020 14.1 (13:40) 5 (08:50) 9.6 7.78 (15:20) 3.33 (14:10) 0 0 0 0 0
20-01-2020 13.6 (15:10) 6.8 (08:00) 10.2 13.06 (00:10) 3.33 (00:10) 1 0 0 1 0
19-01-2020 15.5 (00:20) 8.2 (00:00) 11.8 14.17 (23:30) 7.5 (23:59) 3.6 2.2 0 1.4 0
18-01-2020 17 (14:10) 9.7 (00:00) 13.3 8.33 (16:30) 3.89 (14:00) 4.4 0 0 2 2.4
17-01-2020 18.5 (15:50) 8.2 (00:00) 13.3 3.33 (19:30) 1.67 (19:40) 0 0 0 0 0
16-01-2020 21.1 (14:20) 5.6 (00:00) 13.4 6.39 (15:00) 3.61 (15:00) 0 0 0 0 0
15-01-2020 19.9 (15:20) 6.8 (00:00) 13.3 6.94 (15:10) 3.89 (15:20) 0 0 0 0 0
14-01-2020 16.6 (16:20) 5.6 (00:00) 11.1 3.61 (13:30) 1.39 (13:30) 0 0 0 0 0
13-01-2020 17.9 (15:30) 6.6 (00:00) 12.2 4.72 (13:20) 1.94 (12:40) 0 0 0 0 0
12-01-2020 18 (16:20) 7 (00:00) 12.5 5.83 (19:20) 2.78 (18:50) 0 0 0 0 0
11-01-2020 18.2 (15:50) 5.3 (00:00) 11.8 3.61 (16:30) 1.67 (10:10) 0 0 0 0 0
10-01-2020 14.9 (15:40) 6.3 (00:00) 10.6 6.67 (18:50) 3.61 (19:00) 0 0 0 0 0
09-01-2020 17.2 (15:30) 7.9 (00:00) 12.6 4.17 (19:10) 2.5 (12:00) 0 0 0 0 0
08-01-2020 19.1 (16:30) 5.6 (00:00) 12.4 3.33 (15:00) 1.39 (14:30) 0 0 0 0 0
07-01-2020 18 (16:20) 6.3 (00:00) 12.2 3.89 (14:30) 1.94 (13:20) 0 0 0 0 0
06-01-2020 17.9 (14:20) 7.8 (00:00) 12.8 5.56 (15:40) 2.5 (10:30) 0 0 0 0 0
05-01-2020 17.6 (13:40) 8.3 (00:00) 13 6.11 (11:00) 3.06 (11:00) 0 0 0 0 0
04-01-2020 15 (15:40) 5.3 (00:00) 10.2 4.17 (00:20) 2.22 (00:30) 0 0 0 0 0
03-01-2020 15.3 (13:20) 7.2 (00:00) 11.3 7.22 (20:40) 3.61 (21:00) 0 0 0 0 0
02-01-2020 18.3 (16:10) 7.9 (00:00) 13.1 2.5 (13:40) 1.11 (14:40) 0 0 0 0 0
01-01-2020 18.4 (15:20) 8.3 (00:00) 13.3 4.72 (00:20) 1.67 (00:20) 0 0 0 0 0
31-12-2019 18.7 (15:40) 8.6 (00:00) 13.7 9.17 (20:30) 6.11 (20:40) 0 0 0 0 0
30-12-2019 -- (--) -- (--) -- -- (--) -- (--) -- 0 0 0 --
29-12-2019 18.4 (14:50) 10 (00:00) 14.2 11.11 (10:30) 6.39 (10:30) 0 0 0 0 0
28-12-2019 19.7 (15:10) 12.7 (00:00) 16.2 10.83 (11:30) 7.22 (14:10) 0 0 0 0 0
27-12-2019 20.3 (15:20) 11.2 (00:00) 15.7 16.11 (08:20) 9.17 (08:20) 0 0 0 0 0
26-12-2019 21.6 (16:10) 9.8 (00:00) 15.7 3.06 (13:50) 1.39 (13:50) 0 0 0 0 0

Gráficas

Temp. máximas Temp. mínimas Temp. medias Precipitaciones Rachas de viento máximas Velocidades máximas media en intervalos de 10 minutos

Datos horarios

Fecha y hora oficial Temperatura (ºC) Velocidad del viento (km/h) Dirección del viento Racha (km/h) Dirección de racha Precipitación (mm) Presión (hPa) Tendencia (hPa) Humedad (%)
2020-01-24 23:00:00 10.5 7 Sur 13 Sur 0 -- -- 95
2020-01-24 22:00:00 11 5 Sur 26 Sur 0 -- -- 93
2020-01-24 21:00:00 11.9 13 Sur 41 Sur 0.6 -- -- 94
2020-01-24 20:00:00 11.8 17 Sur 35 Sudeste 5.4 -- -- 93
2020-01-24 19:00:00 12 24 Sur 42 Sudeste 0.8 -- -- 91
2020-01-24 18:00:00 11.5 18 Sudeste 31 Sudeste 2.4 -- -- 94
2020-01-24 17:00:00 11.1 19 Sur 42 Sudeste 6.8 -- -- 92
2020-01-24 16:00:00 13.1 13 Sudeste 30 Sudeste 0.2 -- -- 84
2020-01-24 15:00:00 13.3 17 Sudeste 29 Este 0.2 -- -- 82
2020-01-24 14:00:00 13.8 11 Sudeste 24 Este 0 -- -- 78
2020-01-24 13:00:00 14 19 Este 32 Sudeste 0 -- -- 76
2020-01-24 12:00:00 14.3 13 Sudeste 24 Sudeste 0 -- -- 76
2020-01-24 11:00:00 14.9 15 Sudeste 24 Este 0 -- -- 76
2020-01-24 10:00:00 13.3 6 Este 18 Este 0 -- -- 81
2020-01-24 09:00:00 11.6 5 Este 16 Sudeste 0 -- -- 88
2020-01-24 08:00:00 11.7 15 Sur 30 Sur 0 -- -- 86
2020-01-24 07:00:00 11.4 15 Sur 31 Sur 0 -- -- 87
2020-01-24 06:00:00 11.5 18 Sur 35 Sudeste 0 -- -- 87
2020-01-24 05:00:00 11.8 13 Sudeste 26 Sur 0 -- -- 85
2020-01-24 04:00:00 11.7 7 Sudeste 26 Sudeste 0 -- -- 86
2020-01-24 03:00:00 11.2 15 Sudeste 27 Sur 0 -- -- 89
2020-01-24 02:00:00 11.2 15 Sur 34 Sur 0 -- -- 88
2020-01-24 01:00:00 11.1 17 Sur 32 Sur 0 -- -- 89
2020-01-24 00:00:00 10.8 16 Sudeste 27 Sudeste 0 -- -- 90
2020-01-23 23:00:00 10.4 10 Sudeste 23 Sur 0.2 -- -- 94
2020-01-23 22:00:00 10.7 12 Sudeste 34 Sur 2 -- -- 95
2020-01-23 21:00:00 10.8 9 Sudeste 18 Sudeste 0.4 -- -- 91
2020-01-23 20:00:00 10.3 10 Sudeste 22 Sudeste 1.8 -- -- 94
2020-01-23 19:00:00 10.5 8 Sur 23 Sur 2.6 -- -- 94
2020-01-23 18:00:00 11.5 4 Sur 13 Sur 1.6 -- -- 94
2020-01-23 17:00:00 12.2 4 Sudoeste 13 Sudoeste 1.2 -- -- 91
2020-01-23 16:00:00 13.1 7 Sur 31 Sur 0.2 -- -- 85
2020-01-23 15:00:00 14.4 19 Sur 39 Sur 0 -- -- 73
2020-01-23 14:00:00 14.9 24 Sur 43 Sur 0 -- -- 71
2020-01-23 13:00:00 14.8 28 Sur 48 Sur 0 -- -- 71
2020-01-23 12:00:00 14.8 23 Sur 48 Sur 0 -- -- 71
2020-01-23 11:00:00 13.2 20 Sudeste 39 Sur 0 -- -- 74
2020-01-23 10:00:00 11.8 19 Sudeste 36 Sudeste 0 -- -- 81
2020-01-23 09:00:00 11.7 22 Sur 38 Sur 0 -- -- 82
2020-01-23 08:00:00 11.7 15 Sudeste 26 Sudeste 0 -- -- 84
2020-01-23 07:00:00 11.5 17 Sur 37 Sur 0 -- -- 83
2020-01-23 06:00:00 12 21 Sudeste 32 Sur 0 -- -- 78
2020-01-23 05:00:00 11.8 12 Sudeste 34 Sur 0 -- -- 80
2020-01-23 04:00:00 11.5 13 Sudeste 24 Sudeste 0.2 -- -- 83
2020-01-23 03:00:00 11.4 13 Sudeste 26 Sudeste 0.2 -- -- 85
2020-01-23 02:00:00 11.4 15 Sudeste 30 Sur 0 -- -- 85
2020-01-23 01:00:00 11.1 14 Sudeste 30 Sudeste 0 -- -- 85
2020-01-23 00:00:00 11.1 18 Sudeste 28 Sudeste 0 -- -- 85
2020-01-22 23:00:00 10.7 11 Sudeste 22 Sudeste 0 -- -- 85
2020-01-22 22:00:00 10.3 12 Sudeste 31 Sudeste 0 -- -- 90
2020-01-22 21:00:00 10.4 16 Sudeste 26 Sur 0 -- -- 90
2020-01-22 20:00:00 10.1 10 Sudeste 21 Sudeste 0.4 -- -- 92
2020-01-22 19:00:00 10.1 8 Sudeste 20 Sudeste 0.2 -- -- 92
2020-01-22 18:00:00 10.2 10 Sudeste 19 Este 1.4 -- -- 94
2020-01-22 17:00:00 10.6 13 Sur 21 Sudeste 0.8 -- -- 90
2020-01-22 16:00:00 11.3 0 Calma 14 Este 0.2 -- -- 92
2020-01-22 15:00:00 10.8 10 Sudeste 17 Sur 1.6 -- -- 94
2020-01-22 14:00:00 10.7 7 Sudeste 13 Sudeste 0.2 -- -- 94
2020-01-22 13:00:00 10 2 Sudeste 17 Oeste 1.2 -- -- 95
2020-01-22 12:00:00 9.7 8 Oeste 25 Sudoeste 0.2 -- -- 96
2020-01-22 11:00:00 9.9 0 Calma 4 Sudeste 0 -- -- 97
2020-01-22 10:00:00 9.1 0 Calma 3 Sudoeste 0 -- -- 98
2020-01-22 09:00:00 8.5 0 Calma 5 Este 0.2 -- -- 98
2020-01-22 08:00:00 8.3 2 Este 9 Sudeste 0 -- -- 97
2020-01-22 07:00:00 8.1 0 Calma 5 Este 1.2 -- -- 97
2020-01-22 06:00:00 7.9 0 Calma 4 Sur 2.4 -- -- 96
2020-01-22 05:00:00 7.9 2 Oeste 7 Sur 2.2 -- -- 95
2020-01-22 04:00:00 8.2 3 Sudoeste 9 Sur 0.8 -- -- 92
2020-01-22 03:00:00 8.4 5 Sur 18 Sur 0.6 -- -- 90
2020-01-22 02:00:00 8.6 7 Sur 18 Sur 0.2 -- -- 88
2020-01-22 01:00:00 9.4 11 Sur 18 Sur 0 -- -- 82
2020-01-22 00:00:00 9.2 10 Sur 19 Sur 0 -- -- 80
2020-01-21 23:00:00 9 6 Sur 12 Sur 0 -- -- 82
2020-01-21 22:00:00 9.4 0 Calma 7 Sur 0 -- -- 83
2020-01-21 21:00:00 10.2 2 Este 10 Nordeste 0 -- -- 77
2020-01-21 20:00:00 10.4 6 Norte 25 Noroeste 0 -- -- 71
2020-01-21 19:00:00 10.5 11 Noroeste 24 Norte 0 -- -- 70
2020-01-21 18:00:00 11.6 8 Norte 19 Norte 0 -- -- 67
2020-01-21 17:00:00 12.4 6 Noroeste 23 Norte 0 -- -- 65
2020-01-21 16:00:00 12.4 10 Norte 28 Norte 0 -- -- 66
2020-01-21 15:00:00 13.3 11 Norte 24 Norte 0 -- -- 63
2020-01-21 14:00:00 13 10 Norte 26 Norte 0 -- -- 64
2020-01-21 13:00:00 13.7 4 Noroeste 20 Norte 0 -- -- 65
2020-01-21 12:00:00 12.4 6 Oeste 23 Norte 0 -- -- 66
2020-01-21 11:00:00 10.2 5 Este 10 Nordeste 0 -- -- 76
2020-01-21 10:00:00 8.4 4 Este 12 Este 0 -- -- 80
2020-01-21 09:00:00 5.2 4 Este 9 Nordeste 0 -- -- 94
2020-01-21 08:00:00 5.5 0 Calma 11 Este 0 -- -- 92
2020-01-21 07:00:00 5.3 0 Calma 8 Nordeste 0 -- -- 92
2020-01-21 06:00:00 5.8 0 Calma 6 Este 0 -- -- 90
2020-01-21 05:00:00 6.5 3 Este 8 Este 0 -- -- 89
2020-01-21 04:00:00 6.8 3 Nordeste 12 Nordeste 0 -- -- 86
2020-01-21 03:00:00 7.2 0 Calma 8 Nordeste 0 -- -- 85
2020-01-21 02:00:00 8.1 0 Calma 8 Este 0 -- -- 82
2020-01-21 01:00:00 9.3 3 Nordeste 14 Nordeste 0 -- -- 78
2020-01-21 00:00:00 9.3 7 Este 23 Este 0 -- -- 77
2020-01-20 23:00:00 8.4 3 Norte 14 Este 0 -- -- 82
2020-01-20 22:00:00 8.5 3 Nordeste 15 Nordeste 0 -- -- 80
2020-01-20 21:00:00 8.7 6 Este 19 Este 0 -- -- 76
2020-01-20 20:00:00 7.9 2 Oeste 10 Nordeste 0 -- -- 83
2020-01-20 19:00:00 7.6 2 Nordeste 12 Nordeste 0 -- -- 85
2020-01-20 18:00:00 8.3 4 Noroeste 18 Norte 0.6 -- -- 85
2020-01-20 17:00:00 9.5 4 Norte 14 Este 0.4 -- -- 84
2020-01-20 16:00:00 12.5 3 Noroeste 16 Noroeste 0 -- -- 62
2020-01-20 15:00:00 13.2 4 Noroeste 22 Noroeste 0 -- -- 58
2020-01-20 14:00:00 12.9 5 Noroeste 15 Oeste 0 -- -- 59
2020-01-20 13:00:00 11.9 6 Noroeste 22 Oeste 0 -- -- 60
2020-01-20 12:00:00 10.5 5 Noroeste 20 Norte 0 -- -- 62
2020-01-20 11:00:00 9.9 4 Noroeste 23 Norte 0 -- -- 65
2020-01-20 10:00:00 8.6 5 Noroeste 17 Norte 0 -- -- 66
2020-01-20 09:00:00 6.9 4 Noroeste 20 Este 0 -- -- 73
2020-01-20 08:00:00 6.8 5 Noroeste 26 Norte 0 -- -- 74
2020-01-20 07:00:00 7.1 6 Noroeste 26 Oeste 0 -- -- 72
2020-01-20 06:00:00 7.3 5 Noroeste 19 Norte 0 -- -- 73
2020-01-20 05:00:00 7.5 6 Noroeste 29 Norte 0 -- -- 74
2020-01-20 04:00:00 7.7 8 Noroeste 29 Noroeste 0 -- -- 74
2020-01-20 03:00:00 7.8 6 Noroeste 30 Nordeste 0 -- -- 76
2020-01-20 02:00:00 8.1 9 Norte 32 Noroeste 0 -- -- 77
2020-01-20 01:00:00 8.1 8 Noroeste 47 Norte 0 -- -- 77
2020-01-20 00:00:00 8.7 27 Norte 51 Norte 0 -- -- 74
2020-01-19 23:00:00 9.1 17 Norte 41 Norte 0 -- -- 74
2020-01-19 22:00:00 10.2 14 Norte 40 Nordeste 0 -- -- 69
2020-01-19 21:00:00 11.3 8 Norte 27 Norte 0 -- -- 64
2020-01-19 20:00:00 11.1 13 Norte 25 Norte 0 -- -- 71
2020-01-19 19:00:00 10.6 3 Noroeste 25 Norte 0 -- -- 75
2020-01-19 18:00:00 12.3 10 Norte 24 Norte 0 -- -- 72
2020-01-19 17:00:00 11.7 8 Norte 43 Norte 1.4 -- -- 77
2020-01-19 16:00:00 14.7 10 Noroeste 25 Norte 0 -- -- 62
2020-01-19 15:00:00 14.8 14 Norte 32 Noroeste 0 -- -- 63
2020-01-19 14:00:00 14.6 8 Noroeste 33 Norte 0 -- -- 69
2020-01-19 13:00:00 13.2 12 Noroeste 26 Norte 0 -- -- 75
2020-01-19 12:00:00 12.6 8 Noroeste 20 Oeste 0 -- -- 82
2020-01-19 11:00:00 10.3 5 Noroeste 17 Noroeste 0 -- -- 91
2020-01-19 10:00:00 8.6 9 Oeste 19 Noroeste 0 -- -- 94
2020-01-19 09:00:00 8.3 3 Oeste 12 Noroeste 0 -- -- 95
2020-01-19 08:00:00 8.4 2 Nordeste 17 Oeste 0 -- -- 94
2020-01-19 07:00:00 8.8 3 Sudoeste 12 Sudeste 0 -- -- 96
2020-01-19 06:00:00 9.7 2 Noroeste 9 Noroeste 0 -- -- 96
2020-01-19 05:00:00 10.1 2 Norte 10 Norte 0 -- -- 97
2020-01-19 04:00:00 9.8 0 Calma 9 Sur 0 -- -- 96
2020-01-19 03:00:00 10.8 2 Sur 6 Oeste 0 -- -- 94
2020-01-19 02:00:00 12.5 4 Noroeste 30 Noroeste 0 -- -- 89
2020-01-19 01:00:00 13.4 15 Noroeste 48 Norte 2.2 -- -- 94
2020-01-19 00:00:00 15.4 5 Sur 21 Sur 0.4 -- -- 98
2020-01-18 23:00:00 15.4 5 Sur 19 Sur 0 -- -- 98
2020-01-18 22:00:00 15.5 9 Sur 21 Sur 0 -- -- 98
2020-01-18 21:00:00 15.5 10 Sur 20 Sur 0 -- -- 98
2020-01-18 20:00:00 15.2 10 Sur 19 Sudoeste 0.4 -- -- 98
2020-01-18 19:00:00 15 9 Sur 19 Sur 1.6 -- -- 97
2020-01-18 18:00:00 14.9 8 Sur 22 Sur 1.2 -- -- 96
2020-01-18 17:00:00 15 9 Sur 30 Sudoeste 0.6 -- -- 94
2020-01-18 16:00:00 15.8 9 Sur 24 Sur 0.2 -- -- 92
2020-01-18 15:00:00 16.3 8 Sur 23 Sudoeste 0 -- -- 87
2020-01-18 14:00:00 16.8 14 Sur 25 Sur 0 -- -- 84
2020-01-18 13:00:00 14.6 2 Sur 10 Sur 0 -- -- 89
2020-01-18 12:00:00 13.4 0 Calma 6 Sur 0 -- -- 87
2020-01-18 11:00:00 11.8 3 Este 5 Este 0 -- -- 93
2020-01-18 10:00:00 11.2 3 Este 6 Sudeste 0 -- -- 96
2020-01-18 09:00:00 10.5 0 Calma 20 Oeste 0 -- -- 96
2020-01-18 08:00:00 9.8 0 Calma 3 Sudoeste 0 -- -- 96
2020-01-18 07:00:00 9.8 0 Calma 7 Este 0 -- -- 96
2020-01-18 06:00:00 10 0 Calma 7 Sudeste 0 -- -- 97
2020-01-18 05:00:00 10 0 Calma 4 Sudeste 0 -- -- 96
2020-01-18 04:00:00 10.4 0 Calma 7 Sudeste 0 -- -- 95
2020-01-18 03:00:00 11.2 0 Calma 9 Este 0 -- -- 93
2020-01-18 02:00:00 12.3 4 Este 8 Este 0 -- -- 95
2020-01-18 01:00:00 12.6 0 Calma 4 Sur 0 -- -- 95
2020-01-18 00:00:00 12.5 0 Calma 8 Sudeste 0 -- -- 96
2020-01-17 23:00:00 12.8 2 Sudeste 5 Este 0 -- -- 96
2020-01-17 22:00:00 13.1 0 Calma 5 Oeste 0 -- -- 95
2020-01-17 21:00:00 13.7 2 Noroeste 8 Oeste 0 -- -- 93
2020-01-17 20:00:00 14.8 3 Oeste 12 Oeste 0 -- -- 90
2020-01-17 19:00:00 15.7 4 Oeste 10 Oeste 0 -- -- 84
2020-01-17 18:00:00 16.3 2 Oeste 6 Norte 0 -- -- 73
2020-01-17 17:00:00 18.1 3 Noroeste 8 Oeste 0 -- -- 67
2020-01-17 16:00:00 18.5 4 Norte 10 Norte 0 -- -- 64
2020-01-17 15:00:00 18.1 4 Este 6 Este 0 -- -- 69
2020-01-17 14:00:00 17.5 4 Este 6 Este 0 -- -- 71
2020-01-17 13:00:00 16.5 2 Este 5 Este 0 -- -- 70
2020-01-17 12:00:00 14.1 0 Calma 4 Sur 0 -- -- 73
2020-01-17 11:00:00 12.8 2 Sur 4 Sur 0 -- -- 75
2020-01-17 10:00:00 11.5 2 Sudoeste 5 Sur 0 -- -- 78
2020-01-17 09:00:00 10.5 2 Sudoeste 4 Sudoeste 0 -- -- 77
2020-01-17 08:00:00 9.9 0 Calma 5 Sur 0 -- -- 82
2020-01-17 07:00:00 9.5 4 Sur 6 Sur 0 -- -- 83
2020-01-17 06:00:00 9 2 Sur 5 Sur 0 -- -- 82
2020-01-17 05:00:00 8.3 0 Calma 5 Sudoeste 0 -- -- 81
2020-01-17 04:00:00 8.4 0 Calma 5 Sudeste 0 -- -- 80
2020-01-17 03:00:00 8.3 0 Calma 4 Sudeste 0 -- -- 87
2020-01-17 02:00:00 8.4 0 Calma 4 Sudeste 0 -- -- 88
2020-01-17 01:00:00 9.1 0 Calma 5 Nordeste 0 -- -- 88
2020-01-17 00:00:00 9.5 0 Calma 4 Este 0 -- -- 88
2020-01-16 23:00:00 10.5 0 Calma 5 Norte 0 -- -- 89
2020-01-16 22:00:00 11.2 3 Norte 4 Norte 0 -- -- 87
2020-01-16 21:00:00 11.9 3 Sudoeste 9 Sudoeste 0 -- -- 81
2020-01-16 20:00:00 13.4 5 Sudoeste 12 Sur 0 -- -- 74
2020-01-16 19:00:00 14.4 5 Sudoeste 16 Sudoeste 0 -- -- 62
2020-01-16 18:00:00 17.3 6 Sudoeste 18 Sudoeste 0 -- -- 48
2020-01-16 17:00:00 20.2 7 Sur 18 Sur 0 -- -- 36
2020-01-16 16:00:00 20.4 9 Sur 21 Sur 0 -- -- 33
2020-01-16 15:00:00 21 13 Sur 23 Sur 0 -- -- 27
2020-01-16 14:00:00 20.6 9 Sur 17 Sudeste 0 -- -- 30
2020-01-16 13:00:00 17.6 0 Calma 5 Nordeste 0 -- -- 43
2020-01-16 12:00:00 14.4 2 Sur 5 Sudeste 0 -- -- 52
2020-01-16 11:00:00 12.1 3 Sudeste 5 Sur 0 -- -- 59
2020-01-16 10:00:00 10 3 Sudeste 5 Este 0 -- -- 65
2020-01-16 09:00:00 6.2 2 Sudoeste 4 Sur 0 -- -- 78
2020-01-16 08:00:00 5.6 0 Calma 4 Sudeste 0 -- -- 80
2020-01-16 07:00:00 5.7 0 Calma 5 Este 0 -- -- 77
2020-01-16 06:00:00 6 2 Sudeste 5 Sudeste 0 -- -- 80
2020-01-16 05:00:00 6 0 Calma 4 Sudeste 0 -- -- 75
2020-01-16 04:00:00 6.6 0 Calma 5 Este 0 -- -- 74
2020-01-16 03:00:00 6.8 2 Sur 4 Sudoeste 0 -- -- 76
2020-01-16 02:00:00 7.1 0 Calma 3 Este 0 -- -- 74
2020-01-16 01:00:00 7.5 0 Calma 4 Este 0 -- -- 79
2020-01-16 00:00:00 8.2 0 Calma 4 Este 0 -- -- 77
2020-01-15 23:00:00 9.2 0 Calma 4 Nordeste 0 -- -- 73
2020-01-15 22:00:00 9.7 0 Calma 5 Este 0 -- -- 72
2020-01-15 21:00:00 10.9 0 Calma 5 Nordeste 0 -- -- 73
2020-01-15 20:00:00 12.2 3 Norte 9 Sudeste 0 -- -- 62
2020-01-15 19:00:00 13.7 3 Sudoeste 12 Sudoeste 0 -- -- 49
2020-01-15 18:00:00 16.5 4 Sudoeste 19 Sudoeste 0 -- -- 42
2020-01-15 17:00:00 19.1 8 Sur 20 Sudoeste 0 -- -- 35
2020-01-15 16:00:00 19.8 11 Sudoeste 25 Sur 0 -- -- 36
2020-01-15 15:00:00 19.7 12 Sur 24 Sur 0 -- -- 38
2020-01-15 14:00:00 19.5 8 Sur 23 Sur 0 -- -- 50
2020-01-15 13:00:00 18.6 10 Sur 21 Sur 0 -- -- 54
2020-01-15 12:00:00 17.4 9 Sur 19 Sudeste 0 -- -- 58
2020-01-15 11:00:00 15.1 9 Sur 14 Sudeste 0 -- -- 68
2020-01-15 10:00:00 12.3 3 Este 6 Este 0 -- -- 81
2020-01-15 09:00:00 8.5 0 Calma 6 Norte 0 -- -- 96
2020-01-15 08:00:00 6.8 2 Sur 7 Sur 0 -- -- 95
2020-01-15 07:00:00 6.9 3 Sudoeste 5 Sur 0 -- -- 95
2020-01-15 06:00:00 7 0 Calma 4 Este 0 -- -- 93
2020-01-15 05:00:00 7.2 0 Calma 4 Sudeste 0 -- -- 92
2020-01-15 04:00:00 7.3 0 Calma 4 Nordeste 0 -- -- 91
2020-01-15 03:00:00 7.6 0 Calma 4 Este 0 -- -- 89
2020-01-15 02:00:00 7.9 0 Calma 4 Este 0 -- -- 88
2020-01-15 01:00:00 8.2 0 Calma 4 Este 0 -- -- 89
2020-01-15 00:00:00 8.9 0 Calma 4 Este 0 -- -- 86
2020-01-14 23:00:00 9.2 0 Calma 4 Sudeste 0 -- -- 85
2020-01-14 22:00:00 9.5 0 Calma 4 Nordeste 0 -- -- 84
2020-01-14 21:00:00 10.4 0 Calma 9 Noroeste 0 -- -- 81
2020-01-14 20:00:00 11.3 4 Oeste 10 Sudoeste 0 -- -- 75
2020-01-14 19:00:00 12.4 4 Oeste 8 Oeste 0 -- -- 68
2020-01-14 18:00:00 14 3 Oeste 7 Oeste 0 -- -- 63
2020-01-14 17:00:00 15.9 4 Oeste 8 Sur 0 -- -- 54
2020-01-14 16:00:00 16.4 3 Sudeste 9 Noroeste 0 -- -- 55
2020-01-14 15:00:00 16.3 4 Sudeste 10 Este 0 -- -- 56
2020-01-14 14:00:00 15.7 5 Noroeste 13 Sudoeste 0 -- -- 58
2020-01-14 13:00:00 14.8 4 Sudeste 11 Este 0 -- -- 68
2020-01-14 12:00:00 12 2 Sudeste 5 Este 0 -- -- 77
2020-01-14 11:00:00 9.8 3 Sudeste 7 Este 0 -- -- 83
2020-01-14 10:00:00 6.9 0 Calma 3 Sudeste 0 -- -- 98
2020-01-14 09:00:00 5.7 0 Calma 3 Este 0 -- -- 97
2020-01-14 08:00:00 5.8 0 Calma 4 Nordeste 0 -- -- 96
2020-01-14 07:00:00 6.1 0 Calma 4 Nordeste 0 -- -- 96
2020-01-14 06:00:00 6.2 0 Calma 6 Noroeste 0 -- -- 95
2020-01-14 05:00:00 6.6 0 Calma 4 Este 0 -- -- 95
2020-01-14 04:00:00 6.6 0 Calma 4 Este 0 -- -- 95
2020-01-14 03:00:00 6.9 0 Calma 4 Este 0 -- -- 94
2020-01-14 02:00:00 7.6 0 Calma 4 Nordeste 0 -- -- 94
2020-01-14 01:00:00 8 0 Calma 3 Este 0 -- -- 93
2020-01-14 00:00:00 8.2 0 Calma 4 Nordeste 0 -- -- 90
2020-01-13 23:00:00 9.1 0 Calma 3 Este 0 -- -- 89
2020-01-13 22:00:00 10.4 0 Calma 4 Norte 0 -- -- 84
2020-01-13 21:00:00 11.4 2 Oeste 6 Oeste 0 -- -- 76
2020-01-13 20:00:00 12.7 6 Oeste 11 Oeste 0 -- -- 71
2020-01-13 19:00:00 12.7 0 Calma 6 Noroeste 0 -- -- 66
2020-01-13 18:00:00 15.1 3 Noroeste 8 Noroeste 0 -- -- 59
2020-01-13 17:00:00 17.1 3 Noroeste 10 Oeste 0 -- -- 52
2020-01-13 16:00:00 17.4 2 Nordeste 8 Este 0 -- -- 51
2020-01-13 15:00:00 17.3 4 Nordeste 11 Oeste 0 -- -- 52
2020-01-13 14:00:00 16.4 6 Noroeste 17 Oeste 0 -- -- 57
2020-01-13 13:00:00 15.6 5 Noroeste 14 Noroeste 0 -- -- 59
2020-01-13 12:00:00 14.6 6 Noroeste 10 Norte 0 -- -- 65
2020-01-13 11:00:00 13.4 0 Calma 4 Nordeste 0 -- -- 71
2020-01-13 10:00:00 10.7 0 Calma 5 Norte 0 -- -- 86
2020-01-13 09:00:00 7.2 0 Calma 5 Norte 0 -- -- 97
2020-01-13 08:00:00 6.8 0 Calma 3 Norte 0 -- -- 96
2020-01-13 07:00:00 6.6 0 Calma 4 Norte 0 -- -- 96
2020-01-13 06:00:00 6.9 0 Calma 3 Nordeste 0 -- -- 96
2020-01-13 05:00:00 6.7 0 Calma 4 Nordeste 0 -- -- 96
2020-01-13 04:00:00 6.8 0 Calma 4 Sudeste 0 -- -- 95
2020-01-13 03:00:00 7.1 2 Sur 4 Sudoeste -- -- -- 94
2020-01-13 02:00:00 7.4 0 Calma 4 Noroeste 0 -- -- 93
2020-01-13 01:00:00 7.5 0 Calma 3 Nordeste 0 -- -- 92
2020-01-13 00:00:00 8 0 Calma 5 Nordeste 0 -- -- 89
2020-01-12 23:00:00 8.8 0 Calma 8 Nordeste 0 -- -- 80
2020-01-12 22:00:00 9.6 2 Este 5 Este 0 -- -- 73
2020-01-12 21:00:00 11.1 3 Este 14 Sudeste 0 -- -- 60
2020-01-12 20:00:00 12.9 3 Este 21 Norte 0 -- -- 51
2020-01-12 19:00:00 14 9 Norte 18 Norte 0 -- -- 44
2020-01-12 18:00:00 15.1 7 Norte 17 Norte 0 -- -- 46
2020-01-12 17:00:00 17.7 3 Norte 9 Norte 0 -- -- 41
2020-01-12 16:00:00 17.7 4 Norte 14 Norte 0 -- -- 40
2020-01-12 15:00:00 17.5 4 Norte 15 Norte 0 -- -- 46
2020-01-12 14:00:00 16.6 6 Noroeste 13 Noroeste 0 -- -- 50
2020-01-12 13:00:00 15.5 4 Sudeste 6 Sudeste 0 -- -- 58
2020-01-12 12:00:00 13.6 3 Sudeste 5 Este 0 -- -- 66
2020-01-12 11:00:00 12 3 Sur 8 Sudeste 0 -- -- 70
2020-01-12 10:00:00 9.6 2 Este 9 Sudeste 0 -- -- 80
2020-01-12 09:00:00 7 0 Calma 4 Sudeste 0 -- -- 89
2020-01-12 08:00:00 7.1 0 Calma 4 Este 0 -- -- 90
2020-01-12 07:00:00 7.3 2 Este 8 Este 0 -- -- 89
2020-01-12 06:00:00 7.5 0 Calma 10 Este 0 -- -- 91
2020-01-12 05:00:00 8.2 0 Calma 5 Nordeste 0 -- -- 87
2020-01-12 04:00:00 8.9 0 Calma 6 Este 0 -- -- 84
2020-01-12 03:00:00 8.5 3 Este 8 Este 0 -- -- 87
2020-01-12 02:00:00 8.7 0 Calma 4 Norte 0 -- -- 89
2020-01-12 01:00:00 8.6 0 Calma 5 Sudeste 0 -- -- 87
2020-01-12 00:00:00 8.7 2 Este 8 Este 0 -- -- 87
2020-01-11 23:00:00 9 0 Calma 4 Sudoeste 0 -- -- 86
2020-01-11 22:00:00 9.5 0 Calma 3 Oeste 0 -- -- 82
2020-01-11 21:00:00 10.3 0 Calma 5 Norte 0 -- -- 80
2020-01-11 20:00:00 10.8 0 Calma 4 Nordeste 0 -- -- 80
2020-01-11 19:00:00 12.5 0 Calma 8 Noroeste 0 -- -- 72
2020-01-11 18:00:00 14 3 Noroeste 8 Noroeste 0 -- -- 65
2020-01-11 17:00:00 15.4 3 Norte 13 Norte 0 -- -- 60
2020-01-11 16:00:00 18 3 Este 6 Este 0 -- -- 54
2020-01-11 15:00:00 17.7 4 Nordeste 6 Este 0 -- -- 57
2020-01-11 14:00:00 17.3 3 Nordeste 6 Este 0 -- -- 56
2020-01-11 13:00:00 16.6 4 Sudeste 6 Sudeste 0 -- -- 62
2020-01-11 12:00:00 13.8 0 Calma 5 Sudeste 0 -- -- 68
2020-01-11 11:00:00 11.2 3 Sudeste 10 Sudeste 0 -- -- 73
2020-01-11 10:00:00 8.7 5 Sudeste 10 Este 0 -- -- 79
2020-01-11 09:00:00 5.6 2 Sudeste 8 Este 0 -- -- 84
2020-01-11 08:00:00 5.8 3 Sudeste 10 Este 0 -- -- 84
2020-01-11 07:00:00 5.3 0 Calma 4 Noroeste 0 -- -- 89
2020-01-11 06:00:00 5.5 0 Calma 9 Este 0 -- -- 88
2020-01-11 05:00:00 6 0 Calma 8 Este 0 -- -- 86
2020-01-11 04:00:00 6.6 2 Sudeste 6 Este 0 -- -- 86
2020-01-11 03:00:00 6.8 0 Calma 4 Sudoeste 0 -- -- 81
2020-01-11 02:00:00 7.7 3 Nordeste 8 Sudeste 0 -- -- 79
2020-01-11 01:00:00 7.8 2 Este 9 Nordeste 0 -- -- 77
2020-01-11 00:00:00 8.4 0 Calma 15 Nordeste 0 -- -- 79
2020-01-10 23:00:00 11.5 9 Este 24 Este 0 -- -- 66
2020-01-10 22:00:00 11 5 Norte 15 Noroeste 0 -- -- 74
2020-01-10 21:00:00 11.8 10 Norte 24 Norte 0 -- -- 74
2020-01-10 20:00:00 12 10 Norte 21 Noroeste 0 -- -- 76
2020-01-10 19:00:00 12.2 13 Norte 24 Norte 0 -- -- 76
2020-01-10 18:00:00 13 12 Norte 22 Norte 0 -- -- 73
2020-01-10 17:00:00 14 9 Noroeste 18 Noroeste 0 -- -- 70
2020-01-10 16:00:00 14.4 7 Noroeste 23 Noroeste 0 -- -- 72
2020-01-10 15:00:00 13.8 11 Noroeste 23 Norte 0 -- -- 76
2020-01-10 14:00:00 12.4 7 Noroeste 14 Oeste 0 -- -- 83
2020-01-10 13:00:00 10.6 4 Noroeste 7 Noroeste 0 -- -- 93
2020-01-10 12:00:00 8.9 3 Sudeste 9 Noroeste 0 -- -- 99
2020-01-10 11:00:00 7.6 2 Sudoeste 6 Noroeste 0 -- -- 99
2020-01-10 10:00:00 6.9 0 Calma 15 Oeste 0 -- -- 99
2020-01-10 09:00:00 7 0 Calma 4 Este 0 -- -- 98
2020-01-10 08:00:00 7.7 0 Calma 5 Sudeste 0 -- -- 98
2020-01-10 07:00:00 7.4 0 Calma 3 Nordeste 0 -- -- 98
2020-01-10 06:00:00 7.3 0 Calma 5 Este 0 -- -- 97
2020-01-10 05:00:00 6.6 0 Calma 14 Noroeste 0 -- -- 97
2020-01-10 04:00:00 7.3 3 Noroeste 9 Noroeste 0 -- -- 97
2020-01-10 03:00:00 7.2 0 Calma 4 Sur 0 -- -- 96
2020-01-10 02:00:00 7.8 0 Calma 5 Sudeste 0 -- -- 96
2020-01-10 01:00:00 8.2 0 Calma 3 Sudeste 0 -- -- 95
2020-01-10 00:00:00 9.1 0 Calma 4 Norte 0 -- -- 93
2020-01-09 23:00:00 9.8 2 Sur 8 Oeste 0 -- -- 92
2020-01-09 22:00:00 9.9 0 Calma 4 Norte 0 -- -- 89
2020-01-09 21:00:00 10.7 2 Noroeste 5 Norte 0 -- -- 84
2020-01-09 20:00:00 11.6 0 Calma 15 Oeste 0 -- -- 76
2020-01-09 19:00:00 13.3 4 Noroeste 9 Noroeste 0 -- -- 67
2020-01-09 18:00:00 14.8 6 Oeste 9 Oeste 0 -- -- 59
2020-01-09 17:00:00 17.2 0 Calma 9 Noroeste 0 -- -- 55
2020-01-09 16:00:00 16.1 4 Oeste 13 Noroeste 0 -- -- 60
2020-01-09 15:00:00 17 5 Noroeste 10 Oeste 0 -- -- 55
2020-01-09 14:00:00 16.4 4 Nordeste 13 Noroeste 0 -- -- 57
2020-01-09 13:00:00 14.9 7 Noroeste 15 Noroeste 0 -- -- 60
2020-01-09 12:00:00 13.5 9 Noroeste 15 Noroeste 0 -- -- 66
2020-01-09 11:00:00 12.5 0 Calma 5 Norte 0 -- -- 73
2020-01-09 10:00:00 10.8 0 Calma 5 Noroeste 0 -- -- 86
2020-01-09 09:00:00 8 0 Calma 6 Noroeste 0 -- -- 93
2020-01-09 08:00:00 8 0 Calma 5 Norte 0 -- -- 92
2020-01-09 07:00:00 8.7 0 Calma 8 Nordeste 0 -- -- 91
2020-01-09 06:00:00 8.9 3 Noroeste 8 Este 0 -- -- 90
2020-01-09 05:00:00 9 0 Calma 7 Nordeste 0 -- -- 89
2020-01-09 04:00:00 8.7 0 Calma 5 Este 0 -- -- 91
2020-01-09 03:00:00 9 0 Calma 4 Noroeste 0 -- -- 89
2020-01-09 02:00:00 9.5 0 Calma 5 Sudoeste 0 -- -- 89
2020-01-09 01:00:00 9.6 3 Sudoeste 6 Nordeste 0 -- -- 88
2020-01-09 00:00:00 9.3 0 Calma 5 Norte 0 -- -- 87
2020-01-08 23:00:00 9.5 0 Calma 5 Este 0 -- -- 86
2020-01-08 22:00:00 10 0 Calma 4 Nordeste 0 -- -- 86
2020-01-08 21:00:00 10.4 0 Calma 5 Norte 0 -- -- 82
2020-01-08 20:00:00 12 5 Norte 7 Norte 0 -- -- 75
2020-01-08 19:00:00 13.2 0 Calma 4 Oeste 0 -- -- 52
2020-01-08 18:00:00 15.7 3 Oeste 6 Oeste 0 -- -- 45
2020-01-08 17:00:00 18.8 3 Noroeste 6 Oeste 0 -- -- 43
2020-01-08 16:00:00 18.9 3 Noroeste 11 Oeste 0 -- -- 49
2020-01-08 15:00:00 18 5 Noroeste 12 Noroeste 0 -- -- 56
2020-01-08 14:00:00 17.2 3 Este 11 Noroeste 0 -- -- 59
2020-01-08 13:00:00 14.6 3 Este 8 Norte 0 -- -- 67
2020-01-08 12:00:00 12.1 2 Sudeste 6 Sudeste 0 -- -- 66
2020-01-08 11:00:00 10.5 3 Sudeste 5 Este 0 -- -- 77
2020-01-08 10:00:00 8.7 3 Este 6 Este 0 -- -- 83
2020-01-08 09:00:00 5.9 2 Este 7 Sudeste 0 -- -- 96
2020-01-08 08:00:00 5.6 0 Calma 6 Este 0 -- -- 96
2020-01-08 07:00:00 5.8 0 Calma 4 Este 0 -- -- 96
2020-01-08 06:00:00 6.2 0 Calma 4 Nordeste 0 -- -- 97
2020-01-08 05:00:00 6.6 0 Calma 8 Sudeste 0 -- -- 97
2020-01-08 04:00:00 7.1 0 Calma 3 Sudeste 0 -- -- 96
2020-01-08 03:00:00 7.3 0 Calma 6 Este 0 -- -- 96
2020-01-08 02:00:00 7.6 0 Calma 4 Este 0 -- -- 96
2020-01-08 01:00:00 8.3 0 Calma 3 Nordeste 0 -- -- 95
2020-01-08 00:00:00 8.7 0 Calma 3 Este 0 -- -- 93
2020-01-07 23:00:00 9.1 0 Calma 4 Este 0 -- -- 93
2020-01-07 22:00:00 9.9 0 Calma 4 Sur 0 -- -- 92
2020-01-07 21:00:00 10.6 0 Calma 5 Este 0 -- -- 88
2020-01-07 20:00:00 11.5 0 Calma 4 Este 0 -- -- 83
2020-01-07 19:00:00 12.5 0 Calma 6 Norte 0 -- -- 76
2020-01-07 18:00:00 15.3 2 Noroeste 7 Oeste 0 -- -- 69
2020-01-07 17:00:00 18 3 Oeste 9 Oeste 0 -- -- 58
2020-01-07 16:00:00 17.8 4 Noroeste 9 Noroeste 0 -- -- 59
2020-01-07 15:00:00 16.9 5 Noroeste 14 Oeste 0 -- -- 62
2020-01-07 14:00:00 16.1 3 Noroeste 12 Oeste 0 -- -- 63
2020-01-07 13:00:00 14.4 6 Noroeste 13 Oeste 0 -- -- 70
2020-01-07 12:00:00 12.3 3 Sudeste 5 Sudeste 0 -- -- 77
2020-01-07 11:00:00 10.7 3 Este 6 Sudeste 0 -- -- 82
2020-01-07 10:00:00 8.9 2 Este 4 Sudeste 0 -- -- 97
2020-01-07 09:00:00 6.5 0 Calma 7 Este 0 -- -- 98
2020-01-07 08:00:00 6.7 4 Este 9 Este 0 -- -- 98
2020-01-07 07:00:00 6.4 0 Calma 5 Este 0 -- -- 98
2020-01-07 06:00:00 6.9 0 Calma 5 Sudeste 0 -- -- 98
2020-01-07 05:00:00 7 0 Calma 4 Sur 0 -- -- 97
2020-01-07 04:00:00 7.4 0 Calma 4 Noroeste 0 -- -- 97
2020-01-07 03:00:00 7.6 0 Calma 4 Nordeste 0 -- -- 97
2020-01-07 02:00:00 7.9 0 Calma 3 Sudeste 0 -- -- 96
2020-01-07 01:00:00 8.1 0 Calma 4 Norte 0 -- -- 95
2020-01-07 00:00:00 8.7 0 Calma 3 Norte 0 -- -- 93
2020-01-06 23:00:00 9 0 Calma 4 Noroeste 0 -- -- 91
2020-01-06 22:00:00 9.6 0 Calma 5 Nordeste 0 -- -- 88
2020-01-06 21:00:00 10.8 2 Este 8 Oeste 0 -- -- 82
2020-01-06 20:00:00 11.4 0 Calma 7 Norte 0 -- -- 79
2020-01-06 19:00:00 12.6 0 Calma 13 Noroeste 0 -- -- 75
2020-01-06 18:00:00 14.5 5 Norte 13 Norte 0 -- -- 65
2020-01-06 17:00:00 17.4 2 Norte 12 Norte 0 -- -- 56
2020-01-06 16:00:00 17 7 Norte 20 Norte 0 -- -- 57
2020-01-06 15:00:00 17.8 3 Noroeste 9 Norte 0 -- -- 59
2020-01-06 14:00:00 17.5 3 Nordeste 12 Nordeste 0 -- -- 59
2020-01-06 13:00:00 16.4 5 Norte 15 Norte 0 -- -- 61
2020-01-06 12:00:00 14.9 5 Norte 9 Norte 0 -- -- 68
2020-01-06 11:00:00 13.3 2 Sudeste 13 Este 0 -- -- 71
2020-01-06 10:00:00 10.9 0 Calma 7 Este 0 -- -- 85